Time;durP1;ratioP1;P1;durP2;ratioP2;P2;SDS_P1;SDS_P2;PMS_P1;PMS_P2;Temp;Humidity;BMP_temperature;BMP_pressure;BME280_temperature;BME280_humidity;BME280_pressure;Samples;Min_cycle;Max_cycle;Signal;HPM_P1;HPM_P2
2022/12/20 00:00:46;;;;;;;3.13;1.03;;;11.10;99.90;;;;;;5057162;28;20572;-80
2022/12/20 00:03:13;;;;;;;0.73;0.70;;;11.10;99.90;;;;;;5057738;28;20810;-81
2022/12/20 00:05:42;;;;;;;0.50;0.43;;;11.10;99.90;;;;;;5056275;28;20954;-79
2022/12/20 00:08:09;;;;;;;0.50;0.50;;;11.10;99.90;;;;;;5056254;28;20518;-80
2022/12/20 00:10:37;;;;;;;0.50;0.40;;;11.10;99.90;;;;;;5057041;28;20490;-80
2022/12/20 00:13:05;;;;;;;0.50;0.50;;;11.10;99.90;;;;;;5056979;28;20445;-81
2022/12/20 00:15:32;;;;;;;0.50;0.40;;;11.20;99.90;;;;;;5055762;28;20441;-80
2022/12/20 00:17:59;;;;;;;0.50;0.40;;;11.20;99.90;;;;;;5056540;28;20440;-80
2022/12/20 00:20:28;;;;;;;0.50;0.40;;;11.20;99.90;;;;;;5056638;28;20437;-80
2022/12/20 00:22:54;;;;;;;1.23;1.23;;;11.20;99.90;;;;;;5056034;28;20461;-80
2022/12/20 00:25:22;;;;;;;0.93;0.93;;;11.20;99.90;;;;;;5056271;28;20444;-79
2022/12/20 00:27:49;;;;;;;0.60;0.50;;;11.20;99.90;;;;;;5054955;28;20452;-79
2022/12/20 00:30:18;;;;;;;0.50;0.50;;;11.20;99.90;;;;;;5057379;28;20525;-80
2022/12/20 00:32:45;;;;;;;0.50;0.40;;;11.10;99.90;;;;;;5052571;28;20470;-80
2022/12/20 00:35:12;;;;;;;1.33;1.23;;;11.10;99.90;;;;;;5053850;28;20444;-78
2022/12/20 00:37:39;;;;;;;0.60;0.50;;;11.00;99.90;;;;;;5050747;28;20472;-80
2022/12/20 00:40:07;;;;;;;1.53;1.17;;;11.00;99.90;;;;;;5046085;28;20532;-80
2022/12/20 00:42:34;;;;;;;0.50;0.40;;;11.00;99.90;;;;;;5057743;28;20479;-79
2022/12/20 00:45:02;;;;;;;0.93;0.93;;;11.10;99.90;;;;;;5057655;28;20433;-82
2022/12/20 00:47:31;;;;;;;0.60;0.50;;;11.10;99.90;;;;;;5057731;28;20495;-82
2022/12/20 00:49:57;;;;;;;2.20;1.10;;;11.00;99.90;;;;;;5057989;28;20818;-80
2022/12/20 00:52:24;;;;;;;0.50;0.50;;;11.00;99.90;;;;;;5057758;28;20477;-81
2022/12/20 00:54:51;;;;;;;0.50;0.50;;;11.00;99.90;;;;;;5056244;28;20463;-80
2022/12/20 00:57:18;;;;;;;0.97;0.83;;;11.00;99.90;;;;;;5051065;28;20446;-81
2022/12/20 00:59:45;;;;;;;0.80;0.80;;;11.00;99.90;;;;;;5056285;28;20452;-78
2022/12/20 01:02:12;;;;;;;2.30;1.70;;;11.00;99.90;;;;;;5057373;28;20560;-81
2022/12/20 01:04:40;;;;;;;2.03;0.60;;;11.00;99.90;;;;;;5055249;28;20441;-79
2022/12/20 01:07:07;;;;;;;1.07;0.50;;;11.00;99.90;;;;;;5057448;28;20448;-81
2022/12/20 01:09:35;;;;;;;0.83;0.83;;;11.00;99.90;;;;;;5053849;28;20540;-82
2022/12/20 01:12:02;;;;;;;2.83;0.93;;;10.90;99.90;;;;;;5049176;28;20491;-80
2022/12/20 01:14:29;;;;;;;0.57;0.57;;;11.00;99.90;;;;;;5056103;28;20448;-81
2022/12/20 01:16:57;;;;;;;0.83;0.80;;;10.90;99.90;;;;;;5056254;28;20528;-81
2022/12/20 01:19:24;;;;;;;4.80;1.57;;;11.00;99.90;;;;;;5057048;28;20523;-80
2022/12/20 01:21:52;;;;;;;0.50;0.40;;;11.00;99.90;;;;;;5056477;28;20481;-79
2022/12/20 01:24:20;;;;;;;0.60;0.60;;;11.00;99.90;;;;;;5063724;28;20549;-79
2022/12/20 01:26:47;;;;;;;0.60;0.50;;;11.00;99.90;;;;;;5073425;28;20519;-81
2022/12/20 01:29:15;;;;;;;1.47;1.03;;;11.00;99.90;;;;;;5076476;28;20493;-80
2022/12/20 01:31:42;;;;;;;0.73;0.70;;;11.00;99.90;;;;;;5076832;28;20456;-79
2022/12/20 01:34:09;;;;;;;0.70;0.60;;;11.10;99.90;;;;;;5076024;28;20519;-80
2022/12/20 01:36:38;;;;;;;2.40;2.30;;;11.10;99.90;;;;;;5065025;28;20464;-79
2022/12/20 01:39:08;;;;;;;0.50;0.40;;;11.10;99.90;;;;;;5051102;28;20438;-79
2022/12/20 01:41:37;;;;;;;0.50;0.40;;;11.10;99.90;;;;;;5054964;28;20541;-78
2022/12/20 01:44:07;;;;;;;0.50;0.50;;;11.10;99.90;;;;;;5054972;28;20516;-81
2022/12/20 01:46:36;;;;;;;1.23;1.23;;;11.20;99.90;;;;;;5056276;28;20441;-80
2022/12/20 01:49:06;;;;;;;1.03;1.03;;;11.20;99.90;;;;;;5055924;28;20441;-80
2022/12/20 01:51:36;;;;;;;0.50;0.40;;;11.20;99.90;;;;;;5056378;28;20475;-80
2022/12/20 01:54:11;;;;;;;0.60;0.60;;;11.20;99.90;;;;;;5063435;28;20444;-81
2022/12/20 01:56:39;;;;;;;0.80;0.80;;;11.20;99.90;;;;;;5050210;28;20436;-80
2022/12/20 01:59:07;;;;;;;0.63;0.63;;;11.20;99.90;;;;;;5054984;28;20443;-81
2022/12/20 02:01:34;;;;;;;0.67;0.67;;;11.10;99.90;;;;;;5056102;28;20950;-79
2022/12/20 02:04:02;;;;;;;0.63;0.63;;;11.20;99.90;;;;;;5054652;28;20437;-80
2022/12/20 02:06:29;;;;;;;0.93;0.83;;;11.20;99.90;;;;;;5056145;28;20927;-81
2022/12/20 02:09:00;;;;;;;1.60;0.97;;;11.20;99.90;;;;;;5054865;28;20544;-80
2022/12/20 02:11:49;;;;;;;1.47;1.03;;;11.20;99.90;;;;;;5054966;28;20571;-82
2022/12/20 02:14:28;;;;;;;0.67;0.60;;;11.10;99.90;;;;;;5049135;28;20949;-81
2022/12/20 02:17:00;;;;;;;0.50;0.50;;;11.10;99.90;;;;;;5055238;28;20504;-82
2022/12/20 02:19:50;;;;;;;0.73;0.73;;;11.00;99.90;;;;;;5062572;28;20997;-82
2022/12/20 02:22:27;;;;;;;0.60;0.60;;;11.00;99.90;;;;;;5064063;28;20473;-81
2022/12/20 02:25:11;;;;;;;0.90;0.90;;;11.00;99.90;;;;;;5066473;28;20887;-82
2022/12/20 02:28:00;;;;;;;0.60;0.60;;;11.00;99.90;;;;;;5045543;28;20488;-82
2022/12/20 02:30:33;;;;;;;1.53;1.43;;;11.00;99.90;;;;;;5056150;28;20459;-81
2022/12/20 02:33:03;;;;;;;1.10;0.40;;;11.00;99.90;;;;;;5051726;28;20442;-80
2022/12/20 02:35:33;;;;;;;0.50;0.40;;;11.00;99.90;;;;;;5053536;28;20514;-81
2022/12/20 02:38:02;;;;;;;2.30;2.20;;;11.00;99.90;;;;;;5054055;28;20528;-81
2022/12/20 02:40:34;;;;;;;1.23;1.23;;;11.00;99.90;;;;;;5052424;28;20523;-81
2022/12/20 02:45:13;;;;;;;1.37;0.83;;;10.90;99.90;;;;;;5056291;28;20471;-82
2022/12/20 02:45:53;;;;;;;0.50;0.40;;;10.90;99.90;;;;;;5051819;28;20453;-81
2022/12/20 02:48:21;;;;;;;0.50;0.40;;;10.90;99.90;;;;;;5050669;28;21009;-81
2022/12/20 02:50:52;;;;;;;0.90;0.70;;;10.80;99.90;;;;;;5052201;28;20453;-83
2022/12/20 02:53:19;;;;;;;0.50;0.40;;;10.70;99.90;;;;;;5053448;28;20919;-82
2022/12/20 02:55:50;;;;;;;0.60;0.50;;;10.60;99.90;;;;;;5045003;28;20455;-81
2022/12/20 02:58:26;;;;;;;2.15;1.40;;;10.50;99.90;;;;;;5053168;28;20201;-80
2022/12/20 03:00:56;;;;;;;0.53;0.40;;;10.40;99.90;;;;;;5054106;28;20628;-81
2022/12/20 03:03:23;;;;;;;1.10;0.90;;;10.40;99.90;;;;;;5042806;28;20475;-80
2022/12/20 03:05:52;;;;;;;0.70;0.50;;;10.40;99.90;;;;;;5053957;28;20258;-80
2022/12/20 03:08:19;;;;;;;0.50;0.40;;;10.40;99.90;;;;;;5054686;28;20480;-79
2022/12/20 03:10:46;;;;;;;0.63;0.60;;;10.30;99.90;;;;;;5054786;28;20440;-80
2022/12/20 03:13:13;;;;;;;1.43;1.33;;;10.20;99.90;;;;;;5058561;28;20993;-81
2022/12/20 03:15:40;;;;;;;3.08;1.88;;;10.00;99.90;;;;;;5069793;28;20509;-81
2022/12/20 03:18:09;;;;;;;1.47;1.37;;;9.90;99.90;;;;;;5072166;28;20206;-80
2022/12/20 03:20:36;;;;;;;0.50;0.50;;;9.80;99.90;;;;;;5074304;28;20417;-79
2022/12/20 03:23:02;;;;;;;3.33;1.20;;;9.80;99.90;;;;;;5073391;28;20286;-82
2022/12/20 03:25:29;;;;;;;0.68;0.68;;;9.80;99.90;;;;;;5071251;28;20512;-80
2022/12/20 03:27:56;;;;;;;0.63;0.50;;;9.70;99.90;;;;;;5075901;28;20218;-81
2022/12/20 03:30:24;;;;;;;1.35;1.25;;;9.70;99.90;;;;;;5059200;28;20198;-81
2022/12/20 03:32:50;;;;;;;0.60;0.60;;;9.60;99.90;;;;;;5054882;28;20250;-80
2022/12/20 03:35:19;;;;;;;3.22;1.45;;;9.60;99.90;;;;;;5045288;28;20272;-81
2022/12/20 03:37:45;;;;;;;0.60;0.55;;;9.60;99.90;;;;;;5057064;28;20190;-77
2022/12/20 03:40:14;;;;;;;1.45;1.40;;;9.60;99.90;;;;;;5059853;28;20267;-79
2022/12/20 03:42:41;;;;;;;1.63;1.52;;;9.50;99.90;;;;;;5058807;28;20268;-81
2022/12/20 03:45:09;;;;;;;3.88;1.45;;;9.40;99.90;;;;;;5056799;28;20205;-80
2022/12/20 03:47:36;;;;;;;1.00;0.60;;;9.40;99.90;;;;;;5056891;28;20199;-80
2022/12/20 03:50:03;;;;;;;1.30;1.20;;;9.40;99.90;;;;;;5058842;28;20274;-80
2022/12/20 03:52:31;;;;;;;0.50;0.50;;;9.40;99.90;;;;;;5057844;28;20673;-81
2022/12/20 03:54:58;;;;;;;1.65;1.55;;;9.40;99.90;;;;;;5065234;28;20625;-81
2022/12/20 03:57:25;;;;;;;3.72;1.50;;;9.40;99.90;;;;;;5056730;28;20620;-80
2022/12/20 03:59:53;;;;;;;1.55;1.45;;;9.40;99.90;;;;;;5057299;28;20270;-81
2022/12/20 04:02:21;;;;;;;0.80;0.80;;;9.40;99.90;;;;;;5057648;28;20210;-80
2022/12/20 04:04:49;;;;;;;5.30;1.80;;;9.40;99.90;;;;;;5057340;28;20226;-78
2022/12/20 04:07:16;;;;;;;0.70;0.70;;;9.40;99.90;;;;;;5056162;28;20463;-80
2022/12/20 04:09:45;;;;;;;0.93;0.82;;;9.50;99.90;;;;;;5053405;28;20199;-79
2022/12/20 04:12:12;;;;;;;0.70;0.70;;;9.50;99.90;;;;;;5057319;28;20294;-81
2022/12/20 04:14:38;;;;;;;1.60;1.35;;;9.60;99.90;;;;;;5057545;28;20568;-79
2022/12/20 04:17:05;;;;;;;2.03;1.52;;;9.60;99.90;;;;;;5057102;28;20233;-81
2022/12/20 04:19:32;;;;;;;0.60;0.60;;;9.60;99.90;;;;;;5059482;28;20193;-81
2022/12/20 04:21:59;;;;;;;0.90;0.90;;;9.60;99.90;;;;;;5060328;28;20583;-79
2022/12/20 04:24:26;;;;;;;1.08;0.98;;;9.60;99.90;;;;;;5056767;28;20338;-79
2022/12/20 04:26:54;;;;;;;0.60;0.60;;;9.50;99.90;;;;;;5044676;28;20274;-79
2022/12/20 04:29:21;;;;;;;0.70;0.70;;;9.50;99.90;;;;;;5056581;28;20214;-79
2022/12/20 04:31:48;;;;;;;0.80;0.80;;;9.50;99.90;;;;;;5055690;28;20245;-79
2022/12/20 04:34:15;;;;;;;1.57;1.47;;;9.50;99.90;;;;;;5056788;28;20460;-80
2022/12/20 04:36:41;;;;;;;2.30;2.13;;;9.60;99.90;;;;;;5058233;28;20493;-79
2022/12/20 04:39:08;;;;;;;2.85;1.75;;;9.60;99.90;;;;;;5056647;28;20766;-78
2022/12/20 04:41:35;;;;;;;0.98;0.98;;;9.60;99.90;;;;;;5057455;28;20257;-79
2022/12/20 04:44:05;;;;;;;2.40;2.30;;;9.60;99.90;;;;;;5048560;28;20612;-78
2022/12/20 04:46:32;;;;;;;1.25;1.15;;;9.70;99.90;;;;;;5053315;28;20225;-79
2022/12/20 04:48:59;;;;;;;2.37;0.90;;;9.70;99.90;;;;;;5056725;28;20191;-77
2022/12/20 04:51:26;;;;;;;1.57;1.37;;;9.60;99.90;;;;;;5056334;28;20513;-79
2022/12/20 04:53:52;;;;;;;0.80;0.73;;;9.60;99.90;;;;;;5059186;28;20440;-78
2022/12/20 04:56:20;;;;;;;1.20;1.10;;;9.60;99.90;;;;;;5061623;28;20277;-79
2022/12/20 04:58:49;;;;;;;1.30;1.13;;;9.60;99.90;;;;;;5055258;28;20201;-76
2022/12/20 05:01:18;;;;;;;1.90;1.80;;;9.60;99.90;;;;;;5055229;28;20214;-78
2022/12/20 05:03:45;;;;;;;1.23;1.08;;;9.60;99.90;;;;;;5053450;28;20592;-78
2022/12/20 05:06:13;;;;;;;1.60;1.50;;;9.60;99.90;;;;;;5053540;28;20190;-77
2022/12/20 05:08:40;;;;;;;1.45;1.35;;;9.60;99.90;;;;;;5057448;28;20274;-79
2022/12/20 05:11:08;;;;;;;0.50;0.40;;;9.60;99.90;;;;;;5053283;28;20256;-80
2022/12/20 05:13:35;;;;;;;0.60;0.57;;;9.60;99.90;;;;;;5055379;28;20187;-80
2022/12/20 05:16:02;;;;;;;2.17;1.50;;;9.60;99.90;;;;;;5057731;28;20190;-80
2022/12/20 05:18:31;;;;;;;1.10;1.05;;;9.60;99.90;;;;;;5057469;28;20257;-81
2022/12/20 05:26:31;;;;;;;0.50;0.50;;;9.60;99.90;;;;;;5057088;28;20206;-79
2022/12/20 05:28:58;;;;;;;1.38;1.27;;;9.60;99.90;;;;;;5057213;28;20430;-79
2022/12/20 05:31:25;;;;;;;0.80;0.80;;;9.60;99.90;;;;;;5056198;28;20779;-80
2022/12/20 05:33:54;;;;;;;1.40;1.40;;;9.60;99.90;;;;;;5050273;28;20942;-79
2022/12/20 05:36:21;;;;;;;0.70;0.70;;;9.60;99.90;;;;;;5051013;28;20661;-78
2022/12/20 05:38:48;;;;;;;0.80;0.70;;;9.60;99.90;;;;;;5057050;28;20197;-77
2022/12/20 05:41:15;;;;;;;0.95;0.95;;;9.60;99.90;;;;;;5057113;28;20506;-81
2022/12/20 05:43:41;;;;;;;0.57;0.53;;;9.60;99.90;;;;;;5064293;28;20310;-81
2022/12/20 05:46:09;;;;;;;1.60;1.50;;;9.60;99.90;;;;;;5054133;28;20521;-78
2022/12/20 05:48:36;;;;;;;0.80;0.80;;;9.70;99.90;;;;;;5057535;28;20657;-79
2022/12/20 05:51:04;;;;;;;1.07;0.97;;;9.70;99.90;;;;;;5057702;28;20214;-79
2022/12/20 05:53:31;;;;;;;1.87;1.37;;;9.70;99.90;;;;;;5057502;28;20453;-80
2022/12/20 05:56:00;;;;;;;0.50;0.40;;;9.70;99.90;;;;;;5055333;28;20453;-78
2022/12/20 05:58:27;;;;;;;1.50;1.40;;;9.70;99.90;;;;;;5057556;28;20231;-79
2022/12/20 06:00:55;;;;;;;0.82;0.82;;;9.70;99.90;;;;;;5058160;28;20581;-80
2022/12/20 06:03:21;;;;;;;1.10;0.97;;;9.70;99.90;;;;;;5057334;28;20217;-80
2022/12/20 06:05:48;;;;;;;1.43;1.33;;;9.80;99.90;;;;;;5055274;28;20467;-79
2022/12/20 06:08:16;;;;;;;0.50;0.40;;;9.80;99.90;;;;;;5056717;28;20943;-80
2022/12/20 06:10:43;;;;;;;0.98;0.98;;;9.80;99.90;;;;;;5057812;28;20273;-79
2022/12/20 06:13:10;;;;;;;1.25;1.15;;;9.90;99.90;;;;;;5061038;28;20192;-80
2022/12/20 06:15:38;;;;;;;1.40;0.85;;;9.90;99.90;;;;;;5056381;28;20215;-80
2022/12/20 06:18:05;;;;;;;0.50;0.45;;;9.90;99.90;;;;;;5055297;28;20221;-81
2022/12/20 06:20:32;;;;;;;1.70;0.80;;;9.90;99.90;;;;;;5047853;28;20282;-80
2022/12/20 06:22:59;;;;;;;1.17;1.00;;;9.90;99.90;;;;;;5037740;28;20485;-81
2022/12/20 06:25:28;;;;;;;0.98;0.88;;;9.90;99.90;;;;;;5041084;28;20540;-77
2022/12/20 06:27:55;;;;;;;0.93;0.93;;;10.00;99.90;;;;;;5051968;28;20285;-79
2022/12/20 06:30:22;;;;;;;0.60;0.60;;;10.10;99.90;;;;;;5054928;28;20263;-81
2022/12/20 06:32:49;;;;;;;0.60;0.60;;;10.10;99.90;;;;;;5053959;28;20508;-78
2022/12/20 06:35:16;;;;;;;1.43;1.17;;;10.10;99.90;;;;;;5054421;28;20583;-81
2022/12/20 06:37:45;;;;;;;0.73;0.73;;;10.10;99.90;;;;;;5056394;28;20532;-80
2022/12/20 06:40:14;;;;;;;1.10;1.00;;;10.20;99.90;;;;;;5055343;28;20430;-78
2022/12/20 06:42:42;;;;;;;5.17;4.77;;;10.10;99.90;;;;;;5063377;28;20482;-79
2022/12/20 06:45:10;;;;;;;0.50;0.40;;;10.20;99.90;;;;;;5050165;28;20441;-79
2022/12/20 06:47:37;;;;;;;2.60;1.63;;;10.20;99.90;;;;;;5055421;28;20850;-79
2022/12/20 06:50:05;;;;;;;0.50;0.50;;;10.30;99.90;;;;;;5040135;28;20448;-80
2022/12/20 06:52:32;;;;;;;1.17;1.07;;;10.30;99.90;;;;;;5054509;28;20958;-79
2022/12/20 06:54:59;;;;;;;0.80;0.80;;;10.30;99.90;;;;;;5052334;28;20457;-79
2022/12/20 06:57:26;;;;;;;0.50;0.50;;;10.30;99.90;;;;;;5053889;28;20277;-80
2022/12/20 06:59:54;;;;;;;1.00;0.90;;;10.40;99.90;;;;;;5054500;28;20467;-79
2022/12/20 07:02:21;;;;;;;1.13;0.90;;;10.40;99.90;;;;;;5046367;28;20556;-78
2022/12/20 07:04:48;;;;;;;0.57;0.57;;;10.40;99.90;;;;;;5050367;28;20568;-79
2022/12/20 07:07:16;;;;;;;0.50;0.40;;;10.40;99.90;;;;;;5049741;28;20868;-79
2022/12/20 07:09:43;;;;;;;0.80;0.80;;;10.40;99.90;;;;;;5055234;28;20463;-80
2022/12/20 07:12:10;;;;;;;0.50;0.40;;;10.40;99.90;;;;;;5061689;28;20499;-79
2022/12/20 07:14:37;;;;;;;0.83;0.83;;;10.40;99.90;;;;;;5067539;28;20452;-78
2022/12/20 07:17:06;;;;;;;0.97;0.97;;;10.40;99.90;;;;;;5052719;28;20456;-79
2022/12/20 07:19:33;;;;;;;2.20;0.77;;;10.50;99.90;;;;;;5053592;28;20498;-82
2022/12/20 07:21:59;;;;;;;0.60;0.53;;;10.50;99.90;;;;;;5053552;28;20541;-80
2022/12/20 07:24:27;;;;;;;1.17;1.03;;;10.40;99.90;;;;;;5055665;28;20464;-79
2022/12/20 07:26:53;;;;;;;0.60;0.47;;;10.50;99.90;;;;;;5051926;28;20453;-79
2022/12/20 07:29:20;;;;;;;0.50;0.50;;;10.50;99.90;;;;;;5053364;28;20476;-79
2022/12/20 07:31:47;;;;;;;0.50;0.40;;;10.50;99.90;;;;;;5050899;28;20487;-78
2022/12/20 07:34:15;;;;;;;0.80;0.80;;;10.50;99.90;;;;;;5051696;28;20433;-77
2022/12/20 07:36:42;;;;;;;1.00;1.00;;;10.40;99.90;;;;;;5050638;28;20481;-78
2022/12/20 07:39:09;;;;;;;0.80;0.77;;;10.50;99.90;;;;;;5050217;28;20460;-78
2022/12/20 07:41:36;;;;;;;2.20;0.60;;;10.60;99.90;;;;;;5045912;28;20218;-78
2022/12/20 07:44:03;;;;;;;0.50;0.40;;;10.60;99.90;;;;;;5047790;28;20500;-78
2022/12/20 07:46:30;;;;;;;0.50;0.40;;;10.60;99.90;;;;;;5051931;28;20191;-77
2022/12/20 07:48:57;;;;;;;3.23;2.30;;;10.60;99.90;;;;;;5043584;28;20203;-79
2022/12/20 07:51:28;;;;;;;1.57;1.20;;;10.60;99.90;;;;;;5051139;28;20465;-78
2022/12/20 07:54:00;;;;;;;0.80;0.60;;;10.70;99.90;;;;;;5051215;28;20540;-80
2022/12/20 07:56:28;;;;;;;0.50;0.50;;;10.60;99.90;;;;;;5052107;28;20230;-79
2022/12/20 07:58:58;;;;;;;0.60;0.60;;;10.60;99.90;;;;;;5048958;28;20697;-80
2022/12/20 08:01:27;;;;;;;1.77;1.67;;;10.60;99.90;;;;;;5051846;28;20444;-79
2022/12/20 08:03:59;;;;;;;4.93;1.73;;;10.50;99.90;;;;;;5049083;28;20292;-79
2022/12/20 08:06:28;;;;;;;0.60;0.50;;;10.60;99.90;;;;;;5048892;28;20455;-76
2022/12/20 08:08:58;;;;;;;0.90;0.90;;;10.50;99.90;;;;;;5050113;28;20540;-77
2022/12/20 08:11:27;;;;;;;0.50;0.50;;;10.50;99.90;;;;;;5051521;28;20242;-78
2022/12/20 08:13:54;;;;;;;0.63;0.63;;;10.50;99.90;;;;;;5043360;28;20511;-79
2022/12/20 08:16:20;;;;;;;3.30;1.60;;;10.50;99.90;;;;;;5048495;28;20200;-79
2022/12/20 08:18:47;;;;;;;0.77;0.77;;;10.60;99.90;;;;;;5050017;28;20226;-79
2022/12/20 08:21:14;;;;;;;2.13;0.73;;;10.70;99.90;;;;;;5053590;28;20630;-80
2022/12/20 08:23:42;;;;;;;0.50;0.40;;;10.60;99.90;;;;;;5049549;28;20214;-79
2022/12/20 08:26:09;;;;;;;0.93;0.93;;;10.70;99.90;;;;;;5051674;28;20463;-79
2022/12/20 08:28:36;;;;;;;0.50;0.50;;;10.80;99.90;;;;;;5048940;28;20203;-79
2022/12/20 08:31:04;;;;;;;1.87;1.17;;;10.80;99.90;;;;;;5052669;28;21053;-77
2022/12/20 08:33:32;;;;;;;0.90;0.90;;;10.90;99.90;;;;;;5053984;28;20512;-78
2022/12/20 08:36:01;;;;;;;0.60;0.50;;;10.90;99.90;;;;;;5047575;28;20982;-74
2022/12/20 08:38:29;;;;;;;1.33;0.90;;;10.90;99.90;;;;;;5053942;28;20229;-81
2022/12/20 08:41:02;;;;;;;2.20;2.00;;;11.00;99.90;;;;;;5054452;28;20495;-80
2022/12/20 08:43:29;;;;;;;0.70;0.70;;;11.00;99.90;;;;;;5060025;28;20214;-77
2022/12/20 08:45:56;;;;;;;1.57;0.80;;;11.00;99.90;;;;;;5045396;28;20454;-78
2022/12/20 08:48:23;;;;;;;1.10;0.80;;;11.10;99.90;;;;;;5048017;28;20454;-78
2022/12/20 08:50:55;;;;;;;8.05;1.45;;;11.10;99.90;;;;;;5033232;28;20956;-77
2022/12/20 08:53:22;;;;;;;1.47;1.23;;;11.10;99.90;;;;;;5045088;28;20195;-78
2022/12/20 08:55:49;;;;;;;0.87;0.80;;;11.20;99.90;;;;;;5051252;28;20909;-78
2022/12/20 08:58:17;;;;;;;0.60;0.60;;;11.20;99.90;;;;;;5034417;28;20545;-78
2022/12/20 09:00:44;;;;;;;0.50;0.40;;;11.20;99.90;;;;;;5052503;28;20480;-78
2022/12/20 09:03:12;;;;;;;0.70;0.57;;;11.30;99.90;;;;;;5050174;28;20473;-79
2022/12/20 09:05:45;;;;;;;0.60;0.60;;;11.20;99.90;;;;;;5048899;28;20847;-78
2022/12/20 09:08:12;;;;;;;2.73;0.80;;;11.20;99.90;;;;;;5052739;28;20445;-80
2022/12/20 09:10:39;;;;;;;0.70;0.70;;;11.30;99.90;;;;;;5049033;28;20445;-75
2022/12/20 09:13:06;;;;;;;1.20;0.87;;;11.30;99.90;;;;;;5051284;28;20689;-80
2022/12/20 09:15:35;;;;;;;0.60;0.60;;;11.30;99.90;;;;;;5052040;28;20543;-79
2022/12/20 09:18:03;;;;;;;0.90;0.90;;;11.30;99.90;;;;;;5051010;28;20479;-80
2022/12/20 09:20:30;;;;;;;0.80;0.60;;;11.30;99.90;;;;;;5045194;28;20512;-79
2022/12/20 09:22:58;;;;;;;0.50;0.50;;;11.30;99.90;;;;;;5044294;28;20453;-76
2022/12/20 09:25:25;;;;;;;2.00;1.00;;;11.30;99.90;;;;;;5044754;28;20950;-78
2022/12/20 09:27:54;;;;;;;1.27;1.13;;;11.40;99.90;;;;;;5052245;28;20472;-78
2022/12/20 09:30:21;;;;;;;1.17;1.00;;;11.40;99.90;;;;;;5047885;28;20542;-79
2022/12/20 09:32:49;;;;;;;0.60;0.60;;;11.40;99.90;;;;;;5051418;28;21371;-78
2022/12/20 09:35:16;;;;;;;0.90;0.90;;;11.30;99.90;;;;;;5050272;28;20273;-79
2022/12/20 09:37:43;;;;;;;0.70;0.70;;;11.30;99.90;;;;;;5046682;28;21015;-78
2022/12/20 09:40:17;;;;;;;0.90;0.90;;;11.30;99.90;;;;;;5046532;28;20194;-79
2022/12/20 09:42:44;;;;;;;0.60;0.60;;;11.20;99.90;;;;;;5047822;28;20491;-77
2022/12/20 09:45:26;;;;;;;0.50;0.50;;;11.20;99.90;;;;;;5042680;28;20481;-78
2022/12/20 09:47:55;;;;;;;0.80;0.80;;;11.20;99.90;;;;;;5045882;28;20536;-79
2022/12/20 09:50:34;;;;;;;0.50;0.40;;;11.20;99.90;;;;;;5048641;28;20445;-78
2022/12/20 09:53:14;;;;;;;0.70;0.60;;;11.10;99.90;;;;;;5046597;28;20529;-76
2022/12/20 09:55:47;;;;;;;1.00;0.60;;;11.10;99.90;;;;;;5053622;28;20563;-79
2022/12/20 09:58:32;;;;;;;0.77;0.77;;;11.10;99.90;;;;;;5049068;28;20453;-80
2022/12/20 10:00:59;;;;;;;0.73;0.73;;;11.10;99.90;;;;;;5050924;28;20242;-81
2022/12/20 10:03:31;;;;;;;3.47;0.90;;;11.00;99.90;;;;;;5048812;28;20947;-81
2022/12/20 10:06:01;;;;;;;0.50;0.50;;;11.00;99.90;;;;;;5052709;28;20444;-82
2022/12/20 10:08:45;;;;;;;1.20;0.70;;;11.00;99.90;;;;;;5054157;28;20459;-79
2022/12/20 10:11:25;;;;;;;0.90;0.63;;;11.00;99.90;;;;;;5046139;28;21144;-79
2022/12/20 10:14:02;;;;;;;1.13;0.80;;;11.00;99.90;;;;;;5051769;28;20281;-81
2022/12/20 10:16:41;;;;;;;0.70;0.70;;;11.00;99.90;;;;;;5054598;28;20266;-81
2022/12/20 10:19:36;;;;;;;0.70;0.70;;;11.00;99.90;;;;;;5055886;28;20437;-80
2022/12/20 10:22:11;;;;;;;1.37;1.27;;;11.00;99.90;;;;;;5065430;28;20468;-82
2022/12/20 10:24:40;;;;;;;0.50;0.40;;;11.00;99.90;;;;;;5064814;28;20461;-80
2022/12/20 10:27:14;;;;;;;0.63;0.63;;;11.00;99.90;;;;;;5064158;28;20703;-83
2022/12/20 10:29:41;;;;;;;0.70;0.70;;;11.10;99.90;;;;;;5050841;28;20191;-79
2022/12/20 10:32:14;;;;;;;0.50;0.40;;;11.20;99.90;;;;;;5055863;28;20298;-81
2022/12/20 10:34:47;;;;;;;0.70;0.50;;;11.30;99.90;;;;;;5053477;28;20453;-82
2022/12/20 10:37:15;;;;;;;0.63;0.63;;;11.30;99.90;;;;;;5053754;28;20198;-81
2022/12/20 10:39:44;;;;;;;0.60;0.50;;;11.30;99.90;;;;;;5056980;28;20437;-80
2022/12/20 10:42:36;;;;;;;0.70;0.67;;;11.30;99.90;;;;;;5056515;28;20500;-81
2022/12/20 10:45:03;;;;;;;2.77;1.27;;;11.30;99.90;;;;;;5046813;28;20479;-82
2022/12/20 10:47:37;;;;;;;3.88;0.55;;;11.30;99.90;;;;;;5050040;28;20453;-80
2022/12/20 10:50:16;;;;;;;0.50;0.40;;;11.30;99.90;;;;;;5047937;28;20281;-83
2022/12/20 10:52:45;;;;;;;1.00;0.87;;;11.30;99.90;;;;;;5047690;28;20457;-79
2022/12/20 10:55:35;;;;;;;1.73;1.63;;;11.30;99.90;;;;;;5043936;28;20500;-80
2022/12/20 10:58:12;;;;;;;1.92;1.30;;;11.30;99.90;;;;;;5041573;28;20492;-81
2022/12/20 11:00:40;;;;;;;0.60;0.60;;;11.30;99.90;;;;;;5048006;28;20197;-82
2022/12/20 11:03:15;;;;;;;1.13;0.97;;;11.30;99.90;;;;;;5051428;28;20604;-81
2022/12/20 11:05:54;;;;;;;0.50;0.50;;;11.30;99.90;;;;;;5048675;28;20822;-80
2022/12/20 11:08:23;;;;;;;0.70;0.70;;;11.30;99.90;;;;;;5062489;28;20456;-83
2022/12/20 11:10:50;;;;;;;25.17;1.67;;;11.40;99.90;;;;;;5048121;28;20454;-79
2022/12/20 11:13:24;;;;;;;2.70;0.60;;;11.40;99.90;;;;;;5060027;28;20444;-82
2022/12/20 11:15:55;;;;;;;0.50;0.40;;;11.40;99.90;;;;;;5053285;28;20942;-80
2022/12/20 11:18:32;;;;;;;0.50;0.40;;;11.30;99.90;;;;;;5045101;28;20518;-82
2022/12/20 11:21:11;;;;;;;0.50;0.47;;;11.30;99.90;;;;;;5053327;28;20491;-81
2022/12/20 11:23:43;;;;;;;0.70;0.60;;;11.30;99.90;;;;;;5044199;28;20454;-80
2022/12/20 11:26:25;;;;;;;0.83;0.70;;;11.30;99.90;;;;;;5051263;28;20478;-80
2022/12/20 11:29:10;;;;;;;1.70;1.60;;;11.30;99.90;;;;;;5052909;28;20449;-78
2022/12/20 11:31:49;;;;;;;1.23;1.13;;;11.40;99.90;;;;;;5062530;28;20500;-80
2022/12/20 11:34:38;;;;;;;1.60;1.50;;;11.40;99.90;;;;;;5054248;28;20448;-81
2022/12/20 11:37:18;;;;;;;0.80;0.50;;;11.40;99.90;;;;;;5053946;28;20485;-83
2022/12/20 11:39:57;;;;;;;1.00;0.77;;;11.40;99.90;;;;;;5053298;28;20449;-81
2022/12/20 11:42:32;;;;;;;1.23;1.13;;;11.50;99.90;;;;;;5052467;28;20460;-78
2022/12/20 11:45:05;;;;;;;1.97;1.13;;;11.50;99.90;;;;;;5052732;28;20488;-80
2022/12/20 11:47:55;;;;;;;1.80;1.10;;;11.40;99.90;;;;;;5052517;28;20516;-82
2022/12/20 11:50:42;;;;;;;1.75;1.63;;;11.40;99.90;;;;;;5056270;28;20452;-83
2022/12/20 11:53:16;;;;;;;1.35;1.25;;;11.40;99.90;;;;;;5050438;28;20664;-81
2022/12/20 11:55:49;;;;;;;0.50;0.40;;;11.40;99.90;;;;;;5056302;28;20281;-81
2022/12/20 11:58:20;;;;;;;1.20;0.80;;;11.50;99.90;;;;;;5059914;28;20444;-82
2022/12/20 12:00:54;;;;;;;0.50;0.40;;;11.40;99.90;;;;;;5057854;28;20459;-82
2022/12/20 12:03:28;;;;;;;1.47;1.23;;;11.40;99.90;;;;;;5056024;28;20555;-80
2022/12/20 12:05:59;;;;;;;2.60;2.40;;;11.50;99.90;;;;;;5049441;28;20528;-80
2022/12/20 12:08:34;;;;;;;0.50;0.40;;;11.50;99.90;;;;;;5058555;28;20452;-81
2022/12/20 12:11:06;;;;;;;1.30;1.20;;;11.50;99.90;;;;;;5057613;28;20907;-82
2022/12/20 12:13:37;;;;;;;0.60;0.50;;;11.60;99.90;;;;;;5055809;28;20950;-81
2022/12/20 12:16:10;;;;;;;0.50;0.50;;;11.60;99.90;;;;;;5057577;28;20205;-81
2022/12/20 12:18:39;;;;;;;2.10;0.70;;;11.70;99.90;;;;;;5057906;28;20425;-81
2022/12/20 12:21:11;;;;;;;0.50;0.40;;;11.80;99.90;;;;;;5057575;28;20464;-79
2022/12/20 12:23:49;;;;;;;0.50;0.40;;;11.90;99.90;;;;;;5055996;28;20484;-80
2022/12/20 12:26:21;;;;;;;0.60;0.53;;;11.90;99.90;;;;;;5054537;28;20465;-80
2022/12/20 12:28:53;;;;;;;1.70;1.40;;;12.00;99.90;;;;;;5056588;28;20472;-80
2022/12/20 12:31:25;;;;;;;0.50;0.47;;;12.00;99.90;;;;;;5057092;28;20547;-80
2022/12/20 12:34:05;;;;;;;0.97;0.97;;;12.10;99.90;;;;;;5056835;28;20436;-80
2022/12/20 12:37:15;;;;;;;0.50;0.50;;;12.10;99.90;;;;;;5057260;28;20455;-82
2022/12/20 12:40:00;;;;;;;0.60;0.50;;;12.10;99.90;;;;;;5052045;28;20500;-80
2022/12/20 12:42:56;;;;;;;0.50;0.50;;;12.20;99.90;;;;;;5059411;28;20449;-81
2022/12/20 12:45:27;;;;;;;2.43;1.03;;;12.30;99.90;;;;;;5057734;28;20559;-80
2022/12/20 12:47:58;;;;;;;0.60;0.50;;;12.30;99.90;;;;;;5050377;28;20457;-81
2022/12/20 12:50:29;;;;;;;0.50;0.40;;;12.30;99.90;;;;;;5056529;28;20441;-82
2022/12/20 12:52:58;;;;;;;0.80;0.70;;;12.30;99.90;;;;;;5057907;28;20481;-80
2022/12/20 12:55:42;;;;;;;0.90;0.90;;;12.30;99.90;;;;;;5055877;28;20445;-81
2022/12/20 12:58:33;;;;;;;0.60;0.53;;;12.40;99.90;;;;;;5050152;28;20425;-83
2022/12/20 13:01:03;;;;;;;1.20;1.20;;;12.40;99.90;;;;;;5055256;28;20484;-81
2022/12/20 13:03:46;;;;;;;1.20;1.10;;;12.40;99.90;;;;;;5056023;28;20520;-80
2022/12/20 13:06:54;;;;;;;0.97;0.87;;;12.20;99.90;;;;;;5054900;28;20479;-82
2022/12/20 13:09:37;;;;;;;1.30;1.20;;;12.10;99.90;;;;;;5059321;28;20427;-81
2022/12/20 13:12:39;;;;;;;0.67;0.67;;;11.80;99.90;;;;;;5053716;28;21009;-82